createdAt,value
2022-11-08T06:25:30.324Z,12.48
2022-11-08T06:27:31.810Z,12.48
2022-11-08T06:29:33.333Z,12.57
2022-11-08T06:31:37.333Z,12.57
2022-11-08T06:33:42.055Z,12.57
2022-11-08T06:35:43.669Z,12.55
2022-11-08T06:37:45.209Z,12.61
2022-11-08T06:39:46.685Z,12.70
2022-11-08T06:41:49.798Z,12.65
2022-11-08T06:43:51.325Z,12.60
2022-11-08T06:45:52.855Z,12.65
2022-11-08T06:47:57.366Z,12.71
2022-11-08T06:49:58.888Z,12.74
2022-11-08T06:52:00.493Z,12.62
2022-11-08T06:54:02.040Z,12.61
2022-11-08T06:56:03.918Z,12.65
2022-11-08T06:58:06.977Z,12.73
2022-11-08T07:00:09.816Z,12.72
2022-11-08T07:02:11.749Z,12.76
2022-11-08T07:04:13.349Z,12.78
2022-11-08T07:06:14.891Z,12.83
2022-11-08T07:08:22.360Z,12.88
2022-11-08T07:10:28.060Z,12.93
2022-11-08T07:12:31.921Z,12.89
2022-11-08T07:14:35.466Z,12.92
2022-11-08T07:16:36.957Z,12.92
2022-11-08T07:18:38.612Z,12.90
2022-11-08T07:20:41.636Z,12.98
2022-11-08T07:22:43.162Z,12.99
2022-11-08T07:24:44.625Z,13.00
2022-11-08T07:26:46.466Z,12.98
2022-11-08T07:28:48.013Z,12.95
2022-11-08T07:30:50.952Z,12.96
2022-11-08T07:32:53.348Z,12.94
2022-11-08T07:34:54.980Z,12.95
2022-11-08T07:36:56.577Z,12.93
2022-11-08T07:39:00.194Z,13.01
2022-11-08T07:41:06.113Z,13.04
2022-11-08T07:43:23.735Z,13.13
2022-11-08T07:45:25.896Z,13.19
2022-11-08T07:47:29.107Z,13.23
2022-11-08T07:49:30.950Z,13.23
2022-11-08T07:51:32.650Z,13.31
2022-11-08T07:53:34.193Z,13.37
2022-11-08T07:55:36.495Z,13.41
2022-11-08T07:57:38.183Z,13.52
2022-11-08T07:59:39.853Z,13.59
2022-11-08T08:01:41.464Z,13.59
2022-11-08T08:03:44.644Z,13.55
2022-11-08T08:05:52.951Z,13.58
2022-11-08T08:07:58.112Z,13.58
2022-11-08T08:10:00.190Z,13.67
2022-11-08T08:12:01.786Z,13.68
2022-11-08T08:14:03.531Z,13.77
2022-11-08T08:16:05.636Z,13.84
2022-11-08T08:18:08.577Z,13.89
2022-11-08T08:20:13.519Z,13.92
2022-11-08T08:22:15.418Z,13.94
2022-11-08T08:24:17.556Z,13.86
2022-11-08T08:26:19.624Z,13.86
2022-11-08T08:28:21.454Z,13.81
2022-11-08T08:30:24.652Z,13.84
2022-11-08T08:32:31.296Z,13.84
2022-11-08T08:34:33.685Z,13.88
2022-11-08T08:36:37.136Z,13.91
2022-11-08T08:38:44.174Z,13.92
2022-11-08T08:40:46.473Z,13.99
2022-11-08T08:42:48.317Z,14.02
2022-11-08T08:44:50.002Z,14.09
2022-11-08T08:46:51.623Z,14.10
2022-11-08T08:48:53.259Z,14.18
2022-11-08T08:50:55.147Z,14.22
2022-11-08T08:52:59.572Z,14.30
2022-11-08T08:55:01.130Z,14.38
2022-11-08T08:57:02.779Z,14.47
2022-11-08T09:01:41.259Z,14.59
2022-11-08T09:03:43.057Z,14.65
2022-11-08T09:05:44.837Z,14.73
2022-11-08T09:07:46.395Z,14.85
2022-11-08T09:09:49.248Z,14.91
2022-11-08T09:11:50.800Z,14.91
2022-11-08T09:13:52.354Z,14.95
2022-11-08T09:15:54.079Z,14.96
2022-11-08T09:17:56.106Z,14.96
2022-11-08T09:19:57.740Z,14.94
2022-11-08T09:21:59.350Z,14.93
2022-11-08T09:24:00.967Z,14.90
2022-11-08T09:26:05.239Z,14.94
2022-11-08T09:28:07.492Z,15.00
2022-11-08T09:30:10.281Z,15.04
2022-11-08T09:32:11.901Z,15.20
2022-11-08T09:34:15.145Z,15.33
2022-11-08T09:36:19.300Z,15.50
2022-11-08T09:38:20.962Z,15.72
2022-11-08T09:40:30.201Z,15.94
2022-11-08T09:42:45.317Z,16.26
2022-11-08T09:45:03.052Z,16.55
2022-11-08T09:47:14.380Z,16.70
2022-11-08T09:49:21.190Z,16.76
2022-11-08T09:51:24.264Z,17.01
2022-11-08T09:53:32.332Z,17.10
2022-11-08T09:55:39.733Z,17.14
2022-11-08T09:57:52.615Z,17.07
2022-11-08T10:00:00.944Z,16.96
2022-11-08T10:02:03.177Z,16.74
2022-11-08T10:04:08.907Z,16.71
2022-11-08T10:06:46.175Z,16.60
2022-11-08T10:08:55.437Z,16.51
2022-11-08T10:11:20.214Z,16.42
2022-11-08T10:13:33.854Z,16.40
2022-11-08T10:15:41.321Z,16.44
2022-11-08T10:18:27.029Z,16.56
2022-11-08T10:20:40.088Z,16.55
2022-11-08T10:22:51.681Z,16.62
2022-11-08T10:25:00.436Z,16.66
2022-11-08T10:27:03.760Z,16.74
2022-11-08T10:29:14.137Z,16.81
2022-11-08T10:31:17.854Z,16.99
2022-11-08T10:33:22.811Z,17.23
2022-11-08T10:35:31.127Z,17.29
2022-11-08T10:37:34.080Z,17.42
2022-11-08T10:39:42.725Z,17.49
2022-11-08T10:41:49.911Z,17.63
2022-11-08T10:43:57.977Z,17.67
2022-11-08T10:46:00.964Z,17.75
2022-11-08T10:48:03.148Z,17.66
2022-11-08T10:50:13.812Z,17.41
2022-11-08T10:52:18.441Z,17.36
2022-11-08T10:54:49.377Z,17.29
2022-11-08T10:56:54.985Z,17.41
2022-11-08T10:58:56.553Z,17.55
2022-11-08T11:01:05.925Z,17.51
2022-11-08T11:03:23.476Z,17.51
2022-11-08T11:05:31.300Z,17.52
2022-11-08T11:07:34.744Z,17.67
2022-11-08T11:09:36.284Z,17.70
2022-11-08T11:11:38.297Z,17.85
2022-11-08T11:13:39.843Z,17.94
2022-11-08T11:15:46.299Z,18.01
2022-11-08T11:17:49.222Z,17.86
2022-11-08T11:19:54.854Z,18.01
2022-11-08T11:22:01.488Z,18.11
2022-11-08T11:24:08.990Z,18.14
2022-11-08T11:26:20.224Z,18.10
2022-11-08T11:28:21.814Z,18.19
2022-11-08T11:30:29.340Z,18.20
2022-11-08T11:32:34.270Z,18.25
2022-11-08T11:34:50.692Z,18.22
2022-11-08T11:36:57.137Z,18.16
2022-11-08T11:39:02.768Z,18.27
2022-11-08T11:41:12.938Z,18.30
2022-11-08T11:43:24.152Z,18.26
2022-11-08T11:45:30.797Z,18.07
2022-11-08T11:47:37.441Z,18.02
2022-11-08T11:49:42.911Z,18.00
2022-11-08T11:51:45.927Z,17.99
2022-11-08T11:53:48.924Z,18.00
2022-11-08T11:56:25.941Z,18.01
2022-11-08T11:58:45.494Z,17.94
2022-11-08T12:00:56.010Z,17.83
2022-11-08T12:03:36.099Z,17.83
2022-11-08T12:05:56.191Z,17.85
2022-11-08T12:08:12.128Z,17.85
2022-11-08T12:10:23.654Z,17.81
2022-11-08T12:12:41.565Z,17.72
2022-11-08T12:14:57.479Z,17.73
2022-11-08T12:17:10.160Z,17.73
2022-11-08T12:19:29.077Z,17.73
2022-11-08T12:21:38.161Z,17.71
2022-11-08T12:23:56.465Z,17.74
2022-11-08T12:26:09.394Z,17.79
2022-11-08T12:28:28.307Z,17.77
2022-11-08T12:30:37.342Z,17.79
2022-11-08T12:32:54.112Z,17.77
2022-11-08T12:35:19.040Z,17.76
2022-11-08T12:37:30.766Z,17.77
2022-11-08T12:39:42.304Z,17.83
2022-11-08T12:41:53.648Z,17.78
2022-11-08T12:44:15.481Z,17.81
2022-11-08T12:46:18.914Z,17.83
2022-11-08T12:48:32.525Z,17.87
2022-11-08T12:50:44.252Z,17.87
2022-11-08T12:53:02.290Z,17.87
2022-11-08T12:55:11.340Z,17.89
2022-11-08T12:57:15.869Z,17.90
2022-11-08T12:59:22.701Z,17.91
2022-11-08T13:01:24.328Z,17.97
2022-11-08T13:03:52.225Z,18.01
